sensor_id;sensor_type;location;lat;lon;timestamp;pressure;altitude;pressure_sealevel;temperature;humidity
71976;BME280;68326;52.124;5.424;2023-04-25T00:01:35;101091.88;;;6.37;94.98
71976;BME280;68326;52.124;5.424;2023-04-25T00:04:02;101101.66;;;6.27;94.75
71976;BME280;68326;52.124;5.424;2023-04-25T00:06:29;101102.63;;;6.23;95.74
71976;BME280;68326;52.124;5.424;2023-04-25T00:08:56;101102.69;;;6.20;96.00
71976;BME280;68326;52.124;5.424;2023-04-25T00:11:23;101108.84;;;6.16;95.40
71976;BME280;68326;52.124;5.424;2023-04-25T00:13:50;101108.97;;;6.11;95.28
71976;BME280;68326;52.124;5.424;2023-04-25T00:16:20;101111.66;;;6.08;96.21
71976;BME280;68326;52.124;5.424;2023-04-25T00:18:46;101114.19;;;6.09;96.01
71976;BME280;68326;52.124;5.424;2023-04-25T00:21:18;101107.22;;;6.11;95.67
71976;BME280;68326;52.124;5.424;2023-04-25T00:23:46;101116.84;;;6.06;95.65
71976;BME280;68326;52.124;5.424;2023-04-25T00:26:13;101118.50;;;6.09;95.72
71976;BME280;68326;52.124;5.424;2023-04-25T00:28:40;101115.75;;;6.15;95.52
71976;BME280;68326;52.124;5.424;2023-04-25T00:31:06;101117.50;;;6.15;95.46
71976;BME280;68326;52.124;5.424;2023-04-25T00:33:33;101116.63;;;6.14;94.50
71976;BME280;68326;52.124;5.424;2023-04-25T00:36:00;101119.19;;;6.16;95.40
71976;BME280;68326;52.124;5.424;2023-04-25T00:38:26;101116.72;;;6.11;94.65
71976;BME280;68326;52.124;5.424;2023-04-25T00:40:53;101119.34;;;6.09;94.69
71976;BME280;68326;52.124;5.424;2023-04-25T00:43:20;101115.94;;;6.07;94.70
71976;BME280;68326;52.124;5.424;2023-04-25T00:45:47;101124.66;;;6.03;93.79
71976;BME280;68326;52.124;5.424;2023-04-25T00:48:14;101122.19;;;6.00;94.16
71976;BME280;68326;52.124;5.424;2023-04-25T00:50:41;101123.00;;;6.02;94.68
71976;BME280;68326;52.124;5.424;2023-04-25T00:53:08;101123.00;;;6.02;94.10
71976;BME280;68326;52.124;5.424;2023-04-25T00:55:36;101122.88;;;6.07;93.57
71976;BME280;68326;52.124;5.424;2023-04-25T00:58:02;101128.06;;;6.05;93.54
71976;BME280;68326;52.124;5.424;2023-04-25T01:00:29;101118.59;;;6.06;94.31
71976;BME280;68326;52.124;5.424;2023-04-25T01:02:56;101117.63;;;6.10;94.60
71976;BME280;68326;52.124;5.424;2023-04-25T01:05:23;101115.09;;;6.08;93.57
71976;BME280;68326;52.124;5.424;2023-04-25T01:07:50;101116.06;;;6.04;93.56
71976;BME280;68326;52.124;5.424;2023-04-25T01:10:16;101115.22;;;6.04;93.13
71976;BME280;68326;52.124;5.424;2023-04-25T01:12:42;101117.69;;;6.07;93.21
71976;BME280;68326;52.124;5.424;2023-04-25T01:15:09;101116.88;;;6.05;92.88
71976;BME280;68326;52.124;5.424;2023-04-25T01:17:36;101126.41;;;6.03;93.19
71976;BME280;68326;52.124;5.424;2023-04-25T01:20:04;101125.53;;;6.04;93.38
71976;BME280;68326;52.124;5.424;2023-04-25T01:22:32;101125.53;;;6.04;92.21
71976;BME280;68326;52.124;5.424;2023-04-25T01:24:59;101135.91;;;6.02;92.82
71976;BME280;68326;52.124;5.424;2023-04-25T01:27:26;101129.91;;;6.02;92.93
71976;BME280;68326;52.124;5.424;2023-04-25T01:29:54;101137.81;;;5.94;92.91
71976;BME280;68326;52.124;5.424;2023-04-25T01:32:23;101145.59;;;5.92;93.97
71976;BME280;68326;52.124;5.424;2023-04-25T01:34:50;101143.09;;;5.89;92.80
71976;BME280;68326;52.124;5.424;2023-04-25T01:37:16;101143.16;;;5.86;92.54
71976;BME280;68326;52.124;5.424;2023-04-25T01:39:44;101148.53;;;5.80;92.62
71976;BME280;68326;52.124;5.424;2023-04-25T01:42:12;101145.94;;;5.80;92.97
71976;BME280;68326;52.124;5.424;2023-04-25T01:44:39;101147.66;;;5.80;93.06
71976;BME280;68326;52.124;5.424;2023-04-25T01:47:05;101146.03;;;5.76;92.43
71976;BME280;68326;52.124;5.424;2023-04-25T01:49:32;101150.31;;;5.77;92.93
71976;BME280;68326;52.124;5.424;2023-04-25T01:51:59;101145.19;;;5.75;93.39
71976;BME280;68326;52.124;5.424;2023-04-25T01:54:25;101146.09;;;5.74;92.27
71976;BME280;68326;52.124;5.424;2023-04-25T01:56:52;101146.25;;;5.68;92.39
71976;BME280;68326;52.124;5.424;2023-04-25T01:59:18;101152.41;;;5.62;91.84
71976;BME280;68326;52.124;5.424;2023-04-25T02:01:46;101158.59;;;5.55;91.75
71976;BME280;68326;52.124;5.424;2023-04-25T02:04:13;101164.69;;;5.53;91.80
71976;BME280;68326;52.124;5.424;2023-04-25T02:06:39;101157.84;;;5.50;91.44
71976;BME280;68326;52.124;5.424;2023-04-25T02:09:06;101169.03;;;5.50;91.99
71976;BME280;68326;52.124;5.424;2023-04-25T02:11:32;101167.28;;;5.53;92.10
71976;BME280;68326;52.124;5.424;2023-04-25T02:13:59;101171.63;;;5.50;92.11
71976;BME280;68326;52.124;5.424;2023-04-25T02:16:25;101171.66;;;5.49;92.00
71976;BME280;68326;52.124;5.424;2023-04-25T02:18:51;101160.41;;;5.51;92.33
71976;BME280;68326;52.124;5.424;2023-04-25T02:21:18;101167.31;;;5.51;93.31
71976;BME280;68326;52.124;5.424;2023-04-25T02:23:45;101171.69;;;5.47;92.81
71976;BME280;68326;52.124;5.424;2023-04-25T02:26:15;101172.63;;;5.45;91.95
71976;BME280;68326;52.124;5.424;2023-04-25T02:28:41;101162.25;;;5.46;91.72
71976;BME280;68326;52.124;5.424;2023-04-25T02:31:08;101164.94;;;5.42;91.90
71976;BME280;68326;52.124;5.424;2023-04-25T02:33:34;101171.81;;;5.43;91.29
71976;BME280;68326;52.124;5.424;2023-04-25T02:36:01;101174.44;;;5.40;91.63
71976;BME280;68326;52.124;5.424;2023-04-25T02:38:27;101171.06;;;5.38;92.07
71976;BME280;68326;52.124;5.424;2023-04-25T02:40:54;101176.28;;;5.35;91.99
71976;BME280;68326;52.124;5.424;2023-04-25T02:43:20;101170.19;;;5.37;91.94
71976;BME280;68326;52.124;5.424;2023-04-25T02:45:48;101173.66;;;5.38;91.08
71976;BME280;68326;52.124;5.424;2023-04-25T02:48:14;101175.47;;;5.32;91.68
71976;BME280;68326;52.124;5.424;2023-04-25T02:50:41;101170.34;;;5.31;91.30
71976;BME280;68326;52.124;5.424;2023-04-25T02:53:07;101167.75;;;5.31;92.08
71976;BME280;68326;52.124;5.424;2023-04-25T02:55:34;101169.50;;;5.30;92.28
71976;BME280;68326;52.124;5.424;2023-04-25T02:58:00;101187.44;;;5.35;91.40
71976;BME280;68326;52.124;5.424;2023-04-25T03:00:27;101171.22;;;5.31;91.94
71976;BME280;68326;52.124;5.424;2023-04-25T03:02:54;101178.16;;;5.28;91.75
71976;BME280;68326;52.124;5.424;2023-04-25T03:05:21;101179.00;;;5.28;92.19
71976;BME280;68326;52.124;5.424;2023-04-25T03:07:48;101180.66;;;5.31;92.53
71976;BME280;68326;52.124;5.424;2023-04-25T03:10:14;101180.72;;;5.29;92.09
71976;BME280;68326;52.124;5.424;2023-04-25T03:12:41;101176.44;;;5.28;91.83
71976;BME280;68326;52.124;5.424;2023-04-25T03:15:08;101184.16;;;5.28;91.95
71976;BME280;68326;52.124;5.424;2023-04-25T03:17:34;101184.19;;;5.27;92.60
71976;BME280;68326;52.124;5.424;2023-04-25T03:20:01;101186.88;;;5.22;91.22
71976;BME280;68326;52.124;5.424;2023-04-25T03:22:27;101189.53;;;5.21;92.74
71976;BME280;68326;52.124;5.424;2023-04-25T03:24:54;101194.72;;;5.18;91.78
71976;BME280;68326;52.124;5.424;2023-04-25T03:27:20;101191.41;;;5.13;92.46
71976;BME280;68326;52.124;5.424;2023-04-25T03:29:47;101194.06;;;5.09;92.75
71976;BME280;68326;52.124;5.424;2023-04-25T03:32:13;101196.69;;;5.08;92.39
71976;BME280;68326;52.124;5.424;2023-04-25T03:34:40;101201.91;;;5.03;91.73
71976;BME280;68326;52.124;5.424;2023-04-25T03:37:07;101194.19;;;5.03;92.14
71976;BME280;68326;52.124;5.424;2023-04-25T03:39:33;101205.28;;;5.07;92.97
71976;BME280;68326;52.124;5.424;2023-04-25T03:41:59;101202.69;;;5.08;92.46
71976;BME280;68326;52.124;5.424;2023-04-25T03:44:27;101207.75;;;5.13;92.38
71976;BME280;68326;52.124;5.424;2023-04-25T03:46:53;101212.78;;;5.18;92.18
71976;BME280;68326;52.124;5.424;2023-04-25T03:49:20;101212.69;;;5.22;93.07
71976;BME280;68326;52.124;5.424;2023-04-25T03:51:46;101211.84;;;5.22;92.39
71976;BME280;68326;52.124;5.424;2023-04-25T03:54:13;101219.47;;;5.26;91.91
71976;BME280;68326;52.124;5.424;2023-04-25T03:56:39;101210.78;;;5.30;91.38
71976;BME280;68326;52.124;5.424;2023-04-25T03:59:06;101211.59;;;5.32;91.46
71976;BME280;68326;52.124;5.424;2023-04-25T04:01:32;101219.19;;;5.39;91.74
71976;BME280;68326;52.124;5.424;2023-04-25T04:03:58;101211.38;;;5.42;91.29
71976;BME280;68326;52.124;5.424;2023-04-25T04:06:25;101211.34;;;5.43;90.31
71976;BME280;68326;52.124;5.424;2023-04-25T04:08:52;101215.59;;;5.46;91.18
71976;BME280;68326;52.124;5.424;2023-04-25T04:11:19;101225.84;;;5.50;90.38
71976;BME280;68326;52.124;5.424;2023-04-25T04:13:46;101218.84;;;5.54;90.52
71976;BME280;68326;52.124;5.424;2023-04-25T04:16:13;101222.34;;;5.51;89.92
71976;BME280;68326;52.124;5.424;2023-04-25T04:18:39;101231.88;;;5.49;90.32
71976;BME280;68326;52.124;5.424;2023-04-25T04:21:06;101231.88;;;5.48;90.42
71976;BME280;68326;52.124;5.424;2023-04-25T04:23:32;101237.88;;;5.50;91.21
71976;BME280;68326;52.124;5.424;2023-04-25T04:25:59;101236.16;;;5.50;90.94
71976;BME280;68326;52.124;5.424;2023-04-25T04:28:26;101233.50;;;5.52;90.97
71976;BME280;68326;52.124;5.424;2023-04-25T04:30:54;101224.78;;;5.58;90.69
71976;BME280;68326;52.124;5.424;2023-04-25T04:33:21;101230.81;;;5.57;89.96
71976;BME280;68326;52.124;5.424;2023-04-25T04:35:50;101235.03;;;5.61;89.23
71976;BME280;68326;52.124;5.424;2023-04-25T04:38:18;101237.59;;;5.62;89.92
71976;BME280;68326;52.124;5.424;2023-04-25T04:40:45;101237.56;;;5.64;89.56
71976;BME280;68326;52.124;5.424;2023-04-25T04:43:12;101241.00;;;5.63;89.30
71976;BME280;68326;52.124;5.424;2023-04-25T04:45:39;101243.66;;;5.61;89.83
71976;BME280;68326;52.124;5.424;2023-04-25T04:48:06;101241.91;;;5.62;87.60
71976;BME280;68326;52.124;5.424;2023-04-25T04:50:33;101256.59;;;5.60;87.96
71976;BME280;68326;52.124;5.424;2023-04-25T04:53:00;101258.25;;;5.61;86.86
71976;BME280;68326;52.124;5.424;2023-04-25T04:55:26;101258.19;;;5.65;86.75
71976;BME280;68326;52.124;5.424;2023-04-25T04:57:53;101261.47;;;5.72;86.97
71976;BME280;68326;52.124;5.424;2023-04-25T05:00:19;101262.19;;;5.77;87.98
71976;BME280;68326;52.124;5.424;2023-04-25T05:02:47;101271.66;;;5.78;87.13
71976;BME280;68326;52.124;5.424;2023-04-25T05:05:13;101270.78;;;5.78;87.43
71976;BME280;68326;52.124;5.424;2023-04-25T05:07:40;101279.34;;;5.80;86.59
71976;BME280;68326;52.124;5.424;2023-04-25T05:10:07;101280.25;;;5.79;86.10
71976;BME280;68326;52.124;5.424;2023-04-25T05:12:33;101277.78;;;5.74;86.01
71976;BME280;68326;52.124;5.424;2023-04-25T05:15:02;101287.44;;;5.66;86.05
71976;BME280;68326;52.124;5.424;2023-04-25T05:17:29;101288.28;;;5.66;87.10
71976;BME280;68326;52.124;5.424;2023-04-25T05:19:56;101283.84;;;5.71;86.13
71976;BME280;68326;52.124;5.424;2023-04-25T05:22:22;101295.78;;;5.76;88.24
71976;BME280;68326;52.124;5.424;2023-04-25T05:24:49;101301.88;;;5.73;87.24
71976;BME280;68326;52.124;5.424;2023-04-25T05:27:17;101295.84;;;5.74;87.60
71976;BME280;68326;52.124;5.424;2023-04-25T05:29:44;101304.41;;;5.76;87.47
71976;BME280;68326;52.124;5.424;2023-04-25T05:32:11;101305.22;;;5.78;87.51
71976;BME280;68326;52.124;5.424;2023-04-25T05:34:37;101310.22;;;5.84;88.13
71976;BME280;68326;52.124;5.424;2023-04-25T05:37:04;101315.31;;;5.89;87.64
71976;BME280;68326;52.124;5.424;2023-04-25T05:39:30;101310.16;;;5.87;86.57
71976;BME280;68326;52.124;5.424;2023-04-25T05:41:57;101306.75;;;5.87;87.34
71976;BME280;68326;52.124;5.424;2023-04-25T05:44:23;101315.25;;;5.90;87.89
71976;BME280;68326;52.124;5.424;2023-04-25T05:46:50;101309.16;;;5.95;87.41
71976;BME280;68326;52.124;5.424;2023-04-25T05:49:16;101311.63;;;5.99;87.12
71976;BME280;68326;52.124;5.424;2023-04-25T05:51:44;101310.63;;;6.05;86.08
71976;BME280;68326;52.124;5.424;2023-04-25T05:54:11;101321.91;;;6.02;85.98
71976;BME280;68326;52.124;5.424;2023-04-25T05:56:37;101320.13;;;6.04;86.16
71976;BME280;68326;52.124;5.424;2023-04-25T05:59:04;101329.50;;;6.08;85.73
71976;BME280;68326;52.124;5.424;2023-04-25T06:01:30;101328.50;;;6.14;87.57
71976;BME280;68326;52.124;5.424;2023-04-25T06:03:57;101330.09;;;6.20;85.93
71976;BME280;68326;52.124;5.424;2023-04-25T06:06:24;101329.94;;;6.26;85.96
71976;BME280;68326;52.124;5.424;2023-04-25T06:08:52;101344.53;;;6.28;85.37
71976;BME280;68326;52.124;5.424;2023-04-25T06:11:19;101348.81;;;6.29;86.77
71976;BME280;68326;52.124;5.424;2023-04-25T06:13:46;101346.00;;;6.39;87.54
71976;BME280;68326;52.124;5.424;2023-04-25T06:16:12;101346.00;;;6.39;85.14
71976;BME280;68326;52.124;5.424;2023-04-25T06:18:39;101359.72;;;6.42;84.93
71976;BME280;68326;52.124;5.424;2023-04-25T06:21:05;101346.66;;;6.47;86.99
71976;BME280;68326;52.124;5.424;2023-04-25T06:23:32;101356.84;;;6.53;84.31
71976;BME280;68326;52.124;5.424;2023-04-25T06:25:58;101354.94;;;6.61;84.46
71976;BME280;68326;52.124;5.424;2023-04-25T06:28:25;101352.25;;;6.64;83.77
71976;BME280;68326;52.124;5.424;2023-04-25T06:30:51;101359.00;;;6.70;84.13
71976;BME280;68326;52.124;5.424;2023-04-25T06:33:18;101364.91;;;6.75;82.63
71976;BME280;68326;52.124;5.424;2023-04-25T06:35:44;101353.59;;;6.79;82.38
71976;BME280;68326;52.124;5.424;2023-04-25T06:38:11;101354.88;;;6.96;84.38
71976;BME280;68326;52.124;5.424;2023-04-25T06:40:37;101357.22;;;7.03;84.08
71976;BME280;68326;52.124;5.424;2023-04-25T06:43:03;101363.22;;;7.05;83.46
71976;BME280;68326;52.124;5.424;2023-04-25T06:45:30;101362.38;;;7.05;82.34
71976;BME280;68326;52.124;5.424;2023-04-25T06:47:57;101360.69;;;7.04;82.74
71976;BME280;68326;52.124;5.424;2023-04-25T06:50:24;101370.78;;;7.13;84.33
71976;BME280;68326;52.124;5.424;2023-04-25T06:52:50;101366.38;;;7.17;81.09
71976;BME280;68326;52.124;5.424;2023-04-25T06:55:16;101372.53;;;7.12;80.48
71976;BME280;68326;52.124;5.424;2023-04-25T06:57:43;101369.13;;;7.10;79.80
71976;BME280;68326;52.124;5.424;2023-04-25T07:00:10;101375.31;;;7.05;79.98
71976;BME280;68326;52.124;5.424;2023-04-25T07:02:37;101374.28;;;7.12;81.30
71976;BME280;68326;52.124;5.424;2023-04-25T07:05:04;101382.75;;;7.17;80.19
71976;BME280;68326;52.124;5.424;2023-04-25T07:07:30;101377.53;;;7.19;80.20
71976;BME280;68326;52.124;5.424;2023-04-25T07:09:57;101382.66;;;7.20;79.94
71976;BME280;68326;52.124;5.424;2023-04-25T07:12:23;101384.41;;;7.20;79.75
71976;BME280;68326;52.124;5.424;2023-04-25T07:14:50;101388.63;;;7.22;79.70
71976;BME280;68326;52.124;5.424;2023-04-25T07:17:16;101387.78;;;7.22;78.12
71976;BME280;68326;52.124;5.424;2023-04-25T07:19:42;101396.16;;;7.31;79.07
71976;BME280;68326;52.124;5.424;2023-04-25T07:22:09;101396.19;;;7.30;79.08
71976;BME280;68326;52.124;5.424;2023-04-25T07:24:36;101401.50;;;7.25;76.61
71976;BME280;68326;52.124;5.424;2023-04-25T07:27:02;101404.94;;;7.26;77.38
71976;BME280;68326;52.124;5.424;2023-04-25T07:29:29;101410.28;;;7.51;78.52
71976;BME280;68326;52.124;5.424;2023-04-25T07:31:57;101415.69;;;7.73;77.13
71976;BME280;68326;52.124;5.424;2023-04-25T07:34:23;101411.88;;;7.86;76.17
71976;BME280;68326;52.124;5.424;2023-04-25T07:36:50;101407.22;;;7.96;76.38
71976;BME280;68326;52.124;5.424;2023-04-25T07:39:16;101414.97;;;7.97;77.82
71976;BME280;68326;52.124;5.424;2023-04-25T07:41:43;101414.34;;;7.89;75.62
71976;BME280;68326;52.124;5.424;2023-04-25T07:44:09;101415.09;;;7.93;77.03
71976;BME280;68326;52.124;5.424;2023-04-25T07:46:36;101421.00;;;7.98;76.19
71976;BME280;68326;52.124;5.424;2023-04-25T07:49:02;101424.38;;;8.00;75.51
71976;BME280;68326;52.124;5.424;2023-04-25T07:51:28;101420.84;;;8.03;73.53
71976;BME280;68326;52.124;5.424;2023-04-25T07:53:55;101432.75;;;8.10;73.75
71976;BME280;68326;52.124;5.424;2023-04-25T07:56:21;101426.75;;;8.08;71.95
71976;BME280;68326;52.124;5.424;2023-04-25T07:58:48;101435.41;;;8.07;71.31
71976;BME280;68326;52.124;5.424;2023-04-25T08:01:16;101437.84;;;8.11;71.96
71976;BME280;68326;52.124;5.424;2023-04-25T08:03:43;101442.97;;;8.14;71.32
71976;BME280;68326;52.124;5.424;2023-04-25T08:06:10;101442.72;;;8.22;70.11
71976;BME280;68326;52.124;5.424;2023-04-25T08:08:38;101451.09;;;8.30;70.19
71976;BME280;68326;52.124;5.424;2023-04-25T08:11:04;101449.28;;;8.34;68.49
71976;BME280;68326;52.124;5.424;2023-04-25T08:13:31;101449.63;;;8.51;70.69
71976;BME280;68326;52.124;5.424;2023-04-25T08:15:57;101455.22;;;8.66;70.45
71976;BME280;68326;52.124;5.424;2023-04-25T08:18:24;101457.56;;;8.73;69.69
71976;BME280;68326;52.124;5.424;2023-04-25T08:20:50;101461.53;;;8.84;68.73
71976;BME280;68326;52.124;5.424;2023-04-25T08:23:17;101473.84;;;9.04;68.29
71976;BME280;68326;52.124;5.424;2023-04-25T08:25:44;101478.84;;;8.83;68.03
71976;BME280;68326;52.124;5.424;2023-04-25T08:28:11;101485.84;;;8.54;68.04
71976;BME280;68326;52.124;5.424;2023-04-25T08:30:37;101483.38;;;8.20;69.69
71976;BME280;68326;52.124;5.424;2023-04-25T08:33:04;101493.69;;;7.93;69.43
71976;BME280;68326;52.124;5.424;2023-04-25T08:35:30;101488.16;;;7.76;69.99
71976;BME280;68326;52.124;5.424;2023-04-25T08:37:57;101488.22;;;7.73;68.14
71976;BME280;68326;52.124;5.424;2023-04-25T08:40:27;101502.94;;;7.71;69.88
71976;BME280;68326;52.124;5.424;2023-04-25T08:42:57;101498.75;;;7.67;68.57
71976;BME280;68326;52.124;5.424;2023-04-25T08:45:27;101503.22;;;7.62;68.32
71976;BME280;68326;52.124;5.424;2023-04-25T08:47:54;101501.25;;;7.71;68.87
71976;BME280;68326;52.124;5.424;2023-04-25T08:50:22;101504.38;;;7.83;69.34
71976;BME280;68326;52.124;5.424;2023-04-25T08:52:50;101500.63;;;7.93;68.53
71976;BME280;68326;52.124;5.424;2023-04-25T08:55:18;101509.09;;;7.98;68.39
71976;BME280;68326;52.124;5.424;2023-04-25T08:57:47;101513.84;;;8.13;69.24
71976;BME280;68326;52.124;5.424;2023-04-25T09:00:13;101513.03;;;8.41;68.28
71976;BME280;68326;52.124;5.424;2023-04-25T09:02:42;101516.03;;;8.84;66.95
71976;BME280;68326;52.124;5.424;2023-04-25T09:05:09;101524.09;;;9.28;67.56
71976;BME280;68326;52.124;5.424;2023-04-25T09:07:38;101532.13;;;9.47;64.05
71976;BME280;68326;52.124;5.424;2023-04-25T09:10:05;101533.16;;;9.66;64.16
71976;BME280;68326;52.124;5.424;2023-04-25T09:12:32;101529.38;;;9.75;61.30
71976;BME280;68326;52.124;5.424;2023-04-25T09:15:10;101536.72;;;9.64;62.45
71976;BME280;68326;52.124;5.424;2023-04-25T09:17:37;101542.72;;;9.89;62.51
71976;BME280;68326;52.124;5.424;2023-04-25T09:20:12;101534.66;;;10.20;63.39
71976;BME280;68326;52.124;5.424;2023-04-25T09:22:39;101545.06;;;10.20;61.98
71976;BME280;68326;52.124;5.424;2023-04-25T09:25:10;101541.53;;;9.98;61.97
71976;BME280;68326;52.124;5.424;2023-04-25T09:27:49;101548.50;;;9.74;63.11
71976;BME280;68326;52.124;5.424;2023-04-25T09:30:17;101555.91;;;9.59;60.94
71976;BME280;68326;52.124;5.424;2023-04-25T09:32:43;101555.38;;;9.50;61.87
71976;BME280;68326;52.124;5.424;2023-04-25T09:35:23;101566.41;;;9.31;62.14
71976;BME280;68326;52.124;5.424;2023-04-25T09:37:50;101561.16;;;9.33;61.41
71976;BME280;68326;52.124;5.424;2023-04-25T09:40:17;101562.38;;;9.48;61.40
71976;BME280;68326;52.124;5.424;2023-04-25T09:42:44;101566.19;;;9.63;63.23
71976;BME280;68326;52.124;5.424;2023-04-25T09:45:12;101569.06;;;9.55;64.86
71976;BME280;68326;52.124;5.424;2023-04-25T09:47:41;101575.34;;;9.23;64.65
71976;BME280;68326;52.124;5.424;2023-04-25T09:50:17;101579.34;;;9.06;65.82
71976;BME280;68326;52.124;5.424;2023-04-25T09:52:45;101590.38;;;8.86;66.83
71976;BME280;68326;52.124;5.424;2023-04-25T09:55:12;101596.00;;;8.71;66.25
71976;BME280;68326;52.124;5.424;2023-04-25T09:57:38;101606.72;;;8.60;67.51
71976;BME280;68326;52.124;5.424;2023-04-25T10:00:08;101610.03;;;8.65;68.70
71976;BME280;68326;52.124;5.424;2023-04-25T10:02:39;101612.50;;;8.70;68.61
71976;BME280;68326;52.124;5.424;2023-04-25T10:05:09;101603.47;;;8.82;66.66
71976;BME280;68326;52.124;5.424;2023-04-25T10:07:37;101611.25;;;8.82;66.73
71976;BME280;68326;52.124;5.424;2023-04-25T10:10:05;101614.44;;;8.91;65.29
71976;BME280;68326;52.124;5.424;2023-04-25T10:12:33;101612.44;;;9.00;66.59
71976;BME280;68326;52.124;5.424;2023-04-25T10:15:00;101606.88;;;9.64;67.49
71976;BME280;68326;52.124;5.424;2023-04-25T10:17:27;101608.44;;;10.18;66.61
71976;BME280;68326;52.124;5.424;2023-04-25T10:19:54;101613.56;;;10.45;61.98
71976;BME280;68326;52.124;5.424;2023-04-25T10:22:35;101598.09;;;10.64;61.06
71976;BME280;68326;52.124;5.424;2023-04-25T10:25:03;101595.50;;;10.86;58.78
71976;BME280;68326;52.124;5.424;2023-04-25T10:27:31;101596.78;;;10.75;57.77
71976;BME280;68326;52.124;5.424;2023-04-25T10:30:13;101601.66;;;10.61;58.64
71976;BME280;68326;52.124;5.424;2023-04-25T10:32:42;101595.44;;;10.87;60.62
71976;BME280;68326;52.124;5.424;2023-04-25T10:35:24;101594.84;;;10.80;59.69
71976;BME280;68326;52.124;5.424;2023-04-25T10:38:00;101604.22;;;10.85;59.03
71976;BME280;68326;52.124;5.424;2023-04-25T10:40:29;101602.13;;;10.71;56.40
71976;BME280;68326;52.124;5.424;2023-04-25T10:46:01;101596.03;;;10.94;57.85
71976;BME280;68326;52.124;5.424;2023-04-25T10:48:29;101601.25;;;10.94;54.47
71976;BME280;68326;52.124;5.424;2023-04-25T10:51:12;101598.50;;;11.19;56.10
71976;BME280;68326;52.124;5.424;2023-04-25T10:53:44;101598.84;;;11.73;56.57
71976;BME280;68326;52.124;5.424;2023-04-25T10:56:19;101600.78;;;12.09;55.73
71976;BME280;68326;52.124;5.424;2023-04-25T10:58:47;101594.44;;;12.35;55.81
71976;BME280;68326;52.124;5.424;2023-04-25T11:01:21;101607.94;;;12.43;54.55
71976;BME280;68326;52.124;5.424;2023-04-25T11:03:57;101595.28;;;12.91;54.84
71976;BME280;68326;52.124;5.424;2023-04-25T11:06:50;101592.22;;;12.63;54.56
71976;BME280;68326;52.124;5.424;2023-04-25T11:09:32;101599.69;;;12.14;54.56
71976;BME280;68326;52.124;5.424;2023-04-25T11:11:59;101603.59;;;11.83;54.64
71976;BME280;68326;52.124;5.424;2023-04-25T11:14:26;101623.53;;;11.23;57.25
71976;BME280;68326;52.124;5.424;2023-04-25T11:16:54;101634.50;;;10.16;61.28
71976;BME280;68326;52.124;5.424;2023-04-25T11:19:27;101640.81;;;9.59;64.69
71976;BME280;68326;52.124;5.424;2023-04-25T11:21:58;101649.94;;;9.71;64.96
71976;BME280;68326;52.124;5.424;2023-04-25T11:24:33;101650.06;;;9.41;65.94
71976;BME280;68326;52.124;5.424;2023-04-25T11:27:01;101650.94;;;9.13;68.50
71976;BME280;68326;52.124;5.424;2023-04-25T11:29:30;101653.72;;;9.07;67.92
71976;BME280;68326;52.124;5.424;2023-04-25T11:31:57;101654.06;;;8.96;68.19
71976;BME280;68326;52.124;5.424;2023-04-25T11:34:28;101651.34;;;9.01;68.19
71976;BME280;68326;52.124;5.424;2023-04-25T11:37:02;101648.31;;;8.87;68.50
71976;BME280;68326;52.124;5.424;2023-04-25T11:39:29;101656.00;;;8.90;68.09
71976;BME280;68326;52.124;5.424;2023-04-25T11:41:56;101649.91;;;8.91;67.16
71976;BME280;68326;52.124;5.424;2023-04-25T11:44:23;101657.38;;;9.02;67.92
71976;BME280;68326;52.124;5.424;2023-04-25T11:46:49;101659.94;;;9.03;67.10
71976;BME280;68326;52.124;5.424;2023-04-25T11:49:16;101662.38;;;9.08;66.49
71976;BME280;68326;52.124;5.424;2023-04-25T11:51:47;101656.94;;;9.15;65.59
71976;BME280;68326;52.124;5.424;2023-04-25T11:54:15;101664.44;;;9.51;64.65
71976;BME280;68326;52.124;5.424;2023-04-25T11:56:42;101663.69;;;9.74;61.47
71976;BME280;68326;52.124;5.424;2023-04-25T11:59:09;101660.63;;;9.88;61.39
71976;BME280;68326;52.124;5.424;2023-04-25T12:01:39;101661.97;;;10.49;60.75
71976;BME280;68326;52.124;5.424;2023-04-25T12:04:16;101650.44;;;11.01;59.78
71976;BME280;68326;52.124;5.424;2023-04-25T12:06:45;101644.88;;;11.53;57.24
71976;BME280;68326;52.124;5.424;2023-04-25T12:09:21;101643.97;;;11.54;56.43
71976;BME280;68326;52.124;5.424;2023-04-25T12:11:52;101641.94;;;11.61;56.79
71976;BME280;68326;52.124;5.424;2023-04-25T12:14:26;101646.59;;;11.32;57.55
71976;BME280;68326;52.124;5.424;2023-04-25T12:16:58;101653.66;;;10.86;56.84
71976;BME280;68326;52.124;5.424;2023-04-25T12:19:25;101662.94;;;10.46;57.48
71976;BME280;68326;52.124;5.424;2023-04-25T12:21:52;101664.53;;;10.50;57.82
71976;BME280;68326;52.124;5.424;2023-04-25T12:24:26;101657.38;;;10.79;56.27
71976;BME280;68326;52.124;5.424;2023-04-25T12:27:05;101665.75;;;10.87;57.10
71976;BME280;68326;52.124;5.424;2023-04-25T12:29:33;101671.81;;;10.64;57.14
71976;BME280;68326;52.124;5.424;2023-04-25T12:32:14;101671.72;;;10.18;58.39
71976;BME280;68326;52.124;5.424;2023-04-25T12:34:41;101679.69;;;10.14;57.70
71976;BME280;68326;52.124;5.424;2023-04-25T12:37:08;101677.97;;;10.13;56.66
71976;BME280;68326;52.124;5.424;2023-04-25T12:39:35;101676.28;;;10.12;57.90
71976;BME280;68326;52.124;5.424;2023-04-25T12:42:01;101673.09;;;10.04;59.17
71976;BME280;68326;52.124;5.424;2023-04-25T12:44:30;101679.91;;;10.08;57.58
71976;BME280;68326;52.124;5.424;2023-04-25T12:46:57;101673.63;;;10.38;56.40
71976;BME280;68326;52.124;5.424;2023-04-25T12:49:24;101684.56;;;10.48;56.75
71976;BME280;68326;52.124;5.424;2023-04-25T12:51:51;101673.78;;;10.81;56.88
71976;BME280;68326;52.124;5.424;2023-04-25T12:54:18;101677.75;;;10.68;56.29
71976;BME280;68326;52.124;5.424;2023-04-25T12:56:44;101671.34;;;10.76;53.43
71976;BME280;68326;52.124;5.424;2023-04-25T12:59:11;101667.16;;;11.18;53.80
71976;BME280;68326;52.124;5.424;2023-04-25T13:01:37;101661.69;;;11.24;51.35
71976;BME280;68326;52.124;5.424;2023-04-25T13:04:05;101658.97;;;11.27;51.85